Time;durP1;ratioP1;P1;durP2;ratioP2;P2;SDS_P1;SDS_P2;PMS_P1;PMS_P2;Temp;Humidity;BMP_temperature;BMP_pressure;BME280_temperature;BME280_humidity;BME280_pressure;Samples;Min_cycle;Max_cycle;Signal;HPM_P1;HPM_P2
2023/03/23 00:01:10;;;;;;;4.20;3.90;;;9.60;99.90;;;10.43;82.29;97372.66;5218603;28;20208;-62
2023/03/23 00:03:43;;;;;;;3.53;3.22;;;9.60;99.90;;;10.47;81.73;97371.13;5220151;28;20405;-62
2023/03/23 00:06:17;;;;;;;3.90;3.45;;;9.70;99.90;;;10.58;82.79;97382.75;5223741;28;20196;-62
2023/03/23 00:08:56;;;;;;;3.80;3.43;;;9.80;99.90;;;10.68;81.84;97372.19;5221773;28;20204;-62
2023/03/23 00:11:30;;;;;;;3.20;2.95;;;9.80;99.90;;;10.71;82.23;97374.88;5218373;28;20220;-63
2023/03/23 00:14:02;;;;;;;2.67;2.47;;;9.80;99.90;;;10.63;81.83;97365.97;5218469;28;20731;-62
2023/03/23 00:16:38;;;;;;;3.30;2.75;;;9.70;99.90;;;10.52;81.83;97364.56;5220901;28;21041;-62
2023/03/23 00:19:13;;;;;;;4.07;3.00;;;9.60;99.90;;;10.45;81.69;97382.97;5221273;28;20804;-62
2023/03/23 00:21:45;;;;;;;3.17;2.97;;;9.60;99.90;;;10.47;82.50;97383.91;5218311;28;20570;-63
2023/03/23 00:24:19;;;;;;;3.30;3.10;;;9.60;99.90;;;10.48;83.48;97375.44;5221447;28;20216;-63
2023/03/23 00:26:52;;;;;;;3.38;3.00;;;9.70;99.90;;;10.47;83.77;97372.03;5219863;28;20184;-62
2023/03/23 00:29:25;;;;;;;3.42;2.70;;;9.70;99.90;;;10.48;84.40;97361.00;5222323;28;20215;-63
2023/03/23 00:31:57;;;;;;;2.97;2.78;;;9.70;99.90;;;10.55;84.21;97357.03;5223307;28;20280;-62
2023/03/23 00:34:32;;;;;;;3.08;2.88;;;9.80;99.90;;;10.74;84.25;97348.59;5220837;28;20231;-63
2023/03/23 00:37:04;;;;;;;3.35;3.10;;;9.80;99.90;;;10.68;84.17;97351.75;5218814;28;20196;-62
2023/03/23 00:39:45;;;;;;;2.95;2.70;;;9.80;99.90;;;10.60;85.34;97345.38;5218485;28;20197;-63
2023/03/23 00:42:17;;;;;;;3.50;3.20;;;9.90;99.90;;;10.64;86.22;97346.41;5213459;28;20605;-63
2023/03/23 00:44:49;;;;;;;3.07;2.87;;;9.90;99.90;;;10.56;86.68;97354.59;5222434;28;20224;-63
2023/03/23 00:47:22;;;;;;;4.67;3.50;;;9.90;99.90;;;10.73;85.59;97352.84;5221352;28;20212;-63
2023/03/23 00:49:55;;;;;;;3.78;2.97;;;10.00;99.90;;;10.79;89.05;97353.13;5218373;28;20335;-63
2023/03/23 00:52:27;;;;;;;2.83;2.65;;;10.00;99.90;;;10.76;88.48;97353.00;5215078;28;20303;-63
2023/03/23 00:55:01;;;;;;;3.10;2.83;;;9.90;99.90;;;10.69;88.65;97340.69;5237555;28;20224;-62
2023/03/23 00:57:33;;;;;;;3.35;3.08;;;9.90;99.90;;;10.53;89.18;97345.88;5222800;28;20594;-63
2023/03/23 01:00:10;;;;;;;3.53;3.22;;;9.70;99.90;;;10.46;90.01;97336.16;5223962;28;20200;-63
2023/03/23 01:02:44;;;;;;;3.20;2.77;;;9.70;99.90;;;10.35;89.86;97333.94;5222582;28;20192;-63
2023/03/23 01:05:16;;;;;;;3.33;3.13;;;9.60;99.90;;;10.28;89.60;97341.25;5213273;28;20308;-63
2023/03/23 01:07:48;;;;;;;2.88;2.67;;;9.50;99.90;;;10.22;89.85;97341.78;5221748;28;20562;-63
2023/03/23 01:10:21;;;;;;;2.30;2.20;;;9.50;99.90;;;10.25;90.63;97346.19;5242764;28;20259;-63
2023/03/23 01:12:54;;;;;;;2.80;2.70;;;9.50;99.90;;;10.29;90.29;97336.19;5223548;28;20205;-63
2023/03/23 01:15:27;;;;;;;2.92;2.72;;;9.60;99.90;;;10.35;91.93;97333.94;5221360;28;20244;-62
2023/03/23 01:18:00;;;;;;;3.40;3.10;;;9.70;99.90;;;10.40;91.15;97330.75;5222621;28;20234;-62
2023/03/23 01:20:32;;;;;;;3.17;2.88;;;9.70;99.90;;;10.38;91.29;97326.44;5227185;28;20203;-62
2023/03/23 01:23:05;;;;;;;3.27;3.00;;;9.70;99.90;;;10.46;90.37;97323.38;5226098;28;20212;-63
2023/03/23 01:25:38;;;;;;;3.40;3.10;;;9.80;99.90;;;10.50;89.21;97320.16;5218580;28;20565;-62
2023/03/23 01:28:11;;;;;;;3.33;3.07;;;9.80;99.90;;;10.54;88.71;97322.09;5216407;28;20209;-63
2023/03/23 01:30:43;;;;;;;4.33;3.40;;;9.80;99.90;;;10.52;86.99;97318.56;5225562;28;20297;-62
2023/03/23 01:33:15;;;;;;;3.53;3.30;;;9.80;99.90;;;10.58;86.28;97322.28;5223098;28;20208;-63
2023/03/23 01:35:47;;;;;;;3.43;3.13;;;9.90;99.90;;;10.66;86.40;97309.03;5219840;28;20228;-62
2023/03/23 01:38:19;;;;;;;3.07;2.87;;;10.00;99.90;;;10.63;85.38;97306.31;5235814;28;20196;-62
2023/03/23 01:40:52;;;;;;;3.27;3.00;;;10.00;99.90;;;10.72;85.11;97296.53;5213306;28;20208;-63
2023/03/23 01:43:25;;;;;;;3.80;3.30;;;10.00;99.90;;;10.78;84.59;97300.22;5220896;28;20233;-63
2023/03/23 01:45:57;;;;;;;3.65;2.75;;;10.00;99.90;;;10.89;85.34;97298.19;5226158;28;20196;-62
2023/03/23 01:48:33;;;;;;;3.50;3.03;;;10.10;99.90;;;10.88;86.79;97299.00;5221579;28;20212;-63
2023/03/23 01:51:10;;;;;;;3.13;2.83;;;10.10;99.90;;;10.89;87.52;97294.75;5218082;28;20208;-62
2023/03/23 01:53:47;;;;;;;2.90;2.70;;;10.10;99.90;;;10.82;88.34;97284.25;5225002;28;20224;-62
2023/03/23 01:56:25;;;;;;;3.75;3.35;;;10.00;99.90;;;10.82;88.26;97281.69;5222976;28;20314;-62
2023/03/23 01:58:57;;;;;;;3.15;2.95;;;10.00;99.90;;;10.80;89.06;97278.19;5221061;28;20209;-62
2023/03/23 02:01:30;;;;;;;3.35;3.00;;;10.00;99.90;;;10.81;89.46;97279.94;5215912;28;20298;-63
2023/03/23 02:04:02;;;;;;;3.20;2.97;;;10.00;99.90;;;10.83;88.73;97270.66;5216384;28;20225;-63
2023/03/23 02:06:34;;;;;;;3.42;3.05;;;10.00;99.90;;;10.87;88.45;97270.78;5222925;28;20212;-61
2023/03/23 02:09:06;;;;;;;3.45;3.15;;;10.10;99.90;;;10.86;87.74;97262.25;5224449;28;20197;-62
2023/03/23 02:11:40;;;;;;;2.63;2.33;;;10.10;99.90;;;11.11;87.07;97259.16;5218055;28;20251;-62
2023/03/23 02:14:13;;;;;;;3.25;2.95;;;10.20;99.90;;;11.06;87.71;97265.72;5221726;28;20437;-62
2023/03/23 02:16:54;;;;;;;3.60;3.00;;;10.20;99.90;;;10.90;88.88;97263.25;5225210;28;20631;-63
2023/03/23 02:19:54;;;;;;;2.50;2.40;;;10.00;99.90;;;10.90;89.07;97273.50;5222523;28;20208;-63
2023/03/23 02:22:53;;;;;;;3.33;3.03;;;10.00;99.90;;;10.83;89.78;97273.22;5217919;28;20204;-62
2023/03/23 02:25:57;;;;;;;4.03;2.80;;;10.00;99.90;;;10.83;90.82;97272.34;5218020;28;20228;-63
2023/03/23 02:29:06;;;;;;;2.75;2.58;;;10.00;99.90;;;10.88;90.13;97275.13;5220422;28;20296;-63
2023/03/23 02:31:56;;;;;;;2.67;2.47;;;10.00;99.90;;;10.99;90.58;97263.72;5220819;28;20237;-62
2023/03/23 02:34:33;;;;;;;3.28;3.05;;;10.10;99.90;;;10.98;91.93;97264.50;5222300;28;20236;-62
2023/03/23 02:37:11;;;;;;;3.38;3.17;;;10.00;99.90;;;10.97;91.82;97268.75;5221049;28;20212;-62
2023/03/23 02:39:48;;;;;;;3.67;3.38;;;10.00;99.90;;;10.94;92.49;97266.03;5215286;28;20240;-62
2023/03/23 02:42:26;;;;;;;3.70;3.10;;;10.00;99.90;;;10.91;92.24;97276.13;5218813;28;20626;-62
2023/03/23 02:45:04;;;;;;;3.10;2.90;;;10.00;99.90;;;10.83;92.08;97263.00;5221187;28;20224;-63
2023/03/23 02:47:38;;;;;;;4.10;3.80;;;10.00;99.90;;;10.85;92.87;97269.88;5216748;28;20208;-62
2023/03/23 02:50:15;;;;;;;3.22;2.92;;;10.00;99.90;;;10.87;92.21;97268.25;5210668;28;20200;-63
2023/03/23 02:52:50;;;;;;;3.15;2.90;;;10.00;99.90;;;10.86;92.30;97256.28;5229752;28;20583;-62
2023/03/23 02:55:24;;;;;;;3.22;3.00;;;10.00;99.90;;;10.87;93.30;97258.00;5224106;28;20231;-62
2023/03/23 02:57:57;;;;;;;2.92;2.70;;;10.00;99.90;;;10.93;92.72;97255.72;5219010;28;20711;-62
2023/03/23 03:00:29;;;;;;;4.03;3.30;;;10.00;99.90;;;10.90;92.53;97253.94;5222718;28;20216;-62
2023/03/23 03:03:02;;;;;;;3.03;2.67;;;10.00;99.90;;;10.92;91.73;97243.75;5224033;28;20219;-62
2023/03/23 03:05:45;;;;;;;3.20;3.00;;;10.00;99.90;;;10.86;92.26;97231.56;5220484;28;20208;-62
2023/03/23 03:08:27;;;;;;;2.80;2.60;;;10.00;99.90;;;10.88;91.02;97234.22;5217904;28;20565;-63
2023/03/23 03:11:05;;;;;;;4.68;2.90;;;10.00;99.90;;;10.88;91.44;97229.09;5219860;28;20207;-62
2023/03/23 03:13:47;;;;;;;3.42;3.13;;;10.00;99.90;;;10.92;90.63;97220.75;5219001;28;20359;-62
2023/03/23 03:16:28;;;;;;;3.50;3.20;;;10.10;99.90;;;10.90;91.84;97217.25;5217323;28;20235;-63
2023/03/23 03:19:06;;;;;;;4.70;3.25;;;10.00;99.90;;;10.91;91.99;97219.88;5224767;28;20204;-62
2023/03/23 03:21:45;;;;;;;3.42;3.10;;;10.10;99.90;;;10.87;91.25;97217.09;5218464;28;20742;-62
2023/03/23 03:24:21;;;;;;;3.40;3.20;;;10.00;99.90;;;10.94;91.70;97221.72;5209453;28;20225;-62
2023/03/23 03:26:57;;;;;;;3.55;3.30;;;10.10;99.90;;;10.94;90.93;97209.78;5221576;28;20204;-62
2023/03/23 03:29:34;;;;;;;4.63;3.20;;;10.10;99.90;;;10.90;91.66;97215.59;5221407;28;20196;-63
2023/03/23 03:32:09;;;;;;;3.78;3.50;;;10.10;99.90;;;10.96;91.90;97215.88;5216019;28;20671;-62
2023/03/23 03:34:42;;;;;;;2.95;2.53;;;10.10;99.90;;;10.94;91.67;97203.81;5216786;28;20606;-63
2023/03/23 03:37:16;;;;;;;3.50;3.30;;;10.00;99.90;;;10.97;91.75;97212.50;5213831;28;20216;-63
2023/03/23 03:39:48;;;;;;;2.95;2.70;;;10.00;99.90;;;11.00;91.71;97204.09;5222871;28;20204;-62
2023/03/23 03:42:20;;;;;;;2.85;2.65;;;10.00;99.90;;;10.80;92.35;97204.06;5221986;28;20295;-62
2023/03/23 03:44:52;;;;;;;2.97;2.80;;;9.90;99.90;;;10.66;91.39;97201.69;5222640;28;20641;-63
2023/03/23 03:47:24;;;;;;;4.00;2.83;;;9.80;99.90;;;10.59;91.02;97193.75;5216366;28;20204;-62
2023/03/23 03:49:56;;;;;;;3.42;2.95;;;9.70;99.90;;;10.73;90.48;97204.59;5212554;28;20596;-62
2023/03/23 03:52:29;;;;;;;3.50;3.20;;;9.80;99.90;;;10.72;90.37;97205.38;5223286;28;20238;-62
2023/03/23 03:55:02;;;;;;;3.20;2.97;;;9.90;99.90;;;10.78;91.66;97202.22;5221022;28;20696;-62
2023/03/23 03:57:34;;;;;;;3.22;2.85;;;9.90;99.90;;;10.85;91.05;97203.41;5219483;28;20734;-62
2023/03/23 04:00:14;;;;;;;3.53;3.17;;;10.00;99.90;;;10.87;90.99;97201.78;5217993;28;20197;-62
2023/03/23 04:02:50;;;;;;;3.40;3.10;;;10.00;99.90;;;11.04;90.49;97203.41;5218884;28;20205;-62
2023/03/23 04:05:23;;;;;;;3.15;2.90;;;10.00;99.90;;;10.90;90.67;97207.91;5221687;28;20224;-62
2023/03/23 04:08:01;;;;;;;4.20;3.42;;;10.00;99.90;;;10.87;92.38;97196.66;5222538;28;20843;-63
2023/03/23 04:10:33;;;;;;;3.63;3.33;;;10.00;99.90;;;10.82;92.14;97196.47;5218915;28;20924;-62
2023/03/23 04:13:06;;;;;;;3.55;3.22;;;9.90;99.90;;;10.82;91.95;97193.91;5222218;28;20291;-63
2023/03/23 04:15:38;;;;;;;3.08;2.78;;;9.90;99.90;;;10.79;91.74;97194.66;5216326;28;20224;-63
2023/03/23 04:18:11;;;;;;;3.38;3.08;;;9.90;99.90;;;10.76;93.29;97191.94;5216463;28;20250;-62
2023/03/23 04:20:44;;;;;;;2.95;2.65;;;9.90;99.90;;;10.74;92.16;97195.25;5221821;28;20622;-62
2023/03/23 04:23:19;;;;;;;2.63;2.42;;;9.90;99.90;;;10.76;92.52;97188.53;5221806;28;20205;-62
2023/03/23 04:25:53;;;;;;;4.05;3.17;;;9.90;99.90;;;10.74;92.73;97196.13;5219536;28;20230;-63
2023/03/23 04:28:26;;;;;;;2.97;2.78;;;9.90;99.90;;;10.82;92.38;97194.78;5217581;28;20208;-62
2023/03/23 04:31:00;;;;;;;3.10;2.85;;;9.90;99.90;;;10.81;92.66;97190.44;5222132;28;20201;-63
2023/03/23 04:33:32;;;;;;;5.00;3.20;;;9.90;99.90;;;10.87;91.52;97189.00;5229007;28;20335;-63
2023/03/23 04:36:06;;;;;;;3.35;3.05;;;10.00;99.90;;;10.82;91.68;97199.91;5222328;28;20319;-62
2023/03/23 04:38:41;;;;;;;3.60;3.40;;;9.90;99.90;;;10.81;91.55;97200.69;5223522;28;20553;-63
2023/03/23 04:41:13;;;;;;;3.38;3.08;;;9.90;99.90;;;10.86;92.44;97192.38;5224090;28;20204;-62
2023/03/23 04:43:45;;;;;;;3.05;2.85;;;9.90;99.90;;;10.83;91.75;97199.06;5222398;28;20239;-63
2023/03/23 04:46:17;;;;;;;2.88;2.67;;;10.00;99.90;;;10.88;91.91;97203.53;5223361;28;20562;-62
2023/03/23 04:48:49;;;;;;;3.20;3.00;;;10.00;99.90;;;10.91;91.59;97191.75;5227035;28;20204;-63
2023/03/23 04:51:21;;;;;;;3.30;3.10;;;10.00;99.90;;;11.00;90.88;97194.72;5222519;28;20209;-63
2023/03/23 04:53:56;;;;;;;3.50;3.22;;;10.00;99.90;;;11.05;91.13;97202.59;5220951;28;20216;-62
2023/03/23 04:56:28;;;;;;;3.40;3.10;;;10.10;99.90;;;11.05;91.33;97194.94;5216809;28;20220;-63
2023/03/23 04:59:00;;;;;;;3.08;2.88;;;10.10;99.90;;;11.08;90.41;97194.19;5223324;28;20202;-63
2023/03/23 05:01:33;;;;;;;3.33;3.08;;;10.10;99.90;;;11.06;90.54;97196.69;5220817;28;20668;-62
2023/03/23 05:04:06;;;;;;;3.42;3.13;;;10.10;99.90;;;11.00;91.19;97206.63;5227426;28;20229;-63
2023/03/23 05:06:38;;;;;;;3.50;2.78;;;10.10;99.90;;;10.99;90.38;97202.34;5222584;28;20197;-63
2023/03/23 05:09:11;;;;;;;3.17;2.92;;;10.10;99.90;;;10.99;90.94;97203.22;5216241;28;20200;-63
2023/03/23 05:11:44;;;;;;;3.35;3.15;;;10.10;99.90;;;10.90;90.54;97194.22;5226334;28;20216;-62
2023/03/23 05:14:16;;;;;;;3.60;3.30;;;10.00;99.90;;;10.89;90.96;97192.50;5220680;28;20220;-63
2023/03/23 05:16:48;;;;;;;3.13;2.83;;;10.00;99.90;;;10.90;91.86;97189.13;5225736;28;20227;-62
2023/03/23 05:19:20;;;;;;;3.60;3.28;;;10.00;99.90;;;10.92;91.55;97187.50;5222097;28;20284;-62
2023/03/23 05:21:53;;;;;;;3.63;3.33;;;10.10;99.90;;;10.93;91.37;97184.13;5222579;28;20231;-63
2023/03/23 05:24:31;;;;;;;3.05;2.85;;;10.10;99.90;;;10.89;91.84;97184.81;5211208;28;21913;-62
2023/03/23 05:27:03;;;;;;;3.20;3.00;;;10.00;99.90;;;10.90;91.73;97191.69;5214180;28;20201;-62
2023/03/23 05:29:36;;;;;;;3.20;3.00;;;10.10;99.90;;;10.97;90.15;97189.47;5236392;28;20207;-62
2023/03/23 05:32:09;;;;;;;4.13;3.40;;;10.10;99.90;;;11.06;90.38;97194.13;5222866;28;20196;-63
2023/03/23 05:34:42;;;;;;;3.38;3.17;;;10.20;99.90;;;11.13;90.40;97185.94;5219420;28;20707;-62
2023/03/23 05:37:14;;;;;;;3.30;3.00;;;10.20;99.90;;;11.14;90.32;97187.66;5215224;28;20578;-62
2023/03/23 05:39:47;;;;;;;3.05;2.85;;;10.20;99.90;;;11.12;89.54;97186.72;5211938;28;20283;-62
2023/03/23 05:42:20;;;;;;;3.33;3.03;;;10.20;99.90;;;11.10;90.74;97185.75;5222042;28;20208;-62
2023/03/23 05:44:52;;;;;;;3.33;3.13;;;10.20;99.90;;;11.13;90.48;97185.94;5222752;28;20691;-63
2023/03/23 05:47:25;;;;;;;3.72;3.25;;;10.20;99.90;;;11.26;89.30;97188.19;5236765;28;20217;-62
2023/03/23 05:49:57;;;;;;;3.33;2.97;;;10.30;99.90;;;11.22;88.67;97182.88;5214418;28;20233;-62
2023/03/23 05:52:32;;;;;;;3.20;3.00;;;10.30;99.90;;;11.16;89.72;97175.81;5211981;28;20203;-61
2023/03/23 05:55:08;;;;;;;3.30;3.00;;;10.30;99.90;;;11.15;89.83;97181.72;5230990;28;20220;-62
2023/03/23 05:57:40;;;;;;;2.97;2.78;;;10.30;99.90;;;11.19;90.05;97181.06;5218439;28;20294;-62
2023/03/23 06:00:19;;;;;;;3.50;3.20;;;10.30;99.90;;;11.22;89.61;97181.19;5220693;28;20223;-62
2023/03/23 06:02:56;;;;;;;3.60;3.33;;;10.40;99.90;;;11.32;89.44;97190.13;5215853;28;20201;-62
2023/03/23 06:05:28;;;;;;;3.30;2.90;;;10.40;99.90;;;11.32;89.64;97184.16;5228457;28;20228;-62
2023/03/23 06:08:01;;;;;;;4.60;4.20;;;10.40;99.90;;;11.31;89.43;97187.53;5225938;28;20196;-62
2023/03/23 06:10:36;;;;;;;3.70;3.40;;;10.40;99.90;;;11.22;90.44;97195.69;5224881;28;20256;-62
2023/03/23 06:13:08;;;;;;;4.35;3.78;;;10.40;99.90;;;11.31;90.29;97190.09;5231512;28;20729;-61
2023/03/23 06:15:40;;;;;;;4.30;3.90;;;10.40;99.90;;;11.27;90.11;97200.19;5218776;28;20251;-62
2023/03/23 06:18:12;;;;;;;5.10;3.72;;;10.40;99.90;;;11.30;90.88;97203.66;5217516;28;20225;-62
2023/03/23 06:20:45;;;;;;;3.90;3.60;;;10.40;99.90;;;11.35;90.71;97207.31;5221606;28;20309;-62
2023/03/23 06:23:17;;;;;;;5.55;3.95;;;10.50;99.90;;;11.45;90.23;97199.22;5221338;28;20209;-62
2023/03/23 06:25:54;;;;;;;5.10;3.95;;;10.50;99.90;;;11.50;90.70;97207.97;5223327;28;20197;-63
2023/03/23 06:28:26;;;;;;;4.57;4.13;;;10.60;99.90;;;11.56;90.50;97213.38;5220925;28;20216;-63
2023/03/23 06:31:00;;;;;;;3.63;3.20;;;10.70;99.90;;;11.60;90.16;97212.66;5223354;28;20228;-62
2023/03/23 06:33:33;;;;;;;4.43;3.92;;;10.70;99.90;;;11.73;88.87;97219.16;5220869;28;20313;-62
2023/03/23 06:36:06;;;;;;;3.85;3.55;;;10.80;99.90;;;11.81;88.46;97227.19;5225994;28;20249;-62
2023/03/23 06:38:38;;;;;;;4.88;3.92;;;10.80;99.90;;;11.81;88.41;97219.50;5216632;28;20934;-63
2023/03/23 06:41:12;;;;;;;4.07;3.75;;;10.80;99.90;;;11.87;88.04;97219.78;5217277;28;20205;-63
2023/03/23 06:43:46;;;;;;;3.83;3.40;;;10.90;99.90;;;11.83;88.87;97228.13;5222045;28;20235;-63
2023/03/23 06:46:18;;;;;;;4.30;3.90;;;10.90;99.90;;;11.88;88.87;97222.41;5219838;28;20203;-63
2023/03/23 06:48:51;;;;;;;4.70;4.25;;;11.00;99.90;;;11.93;88.77;97226.06;5221162;28;20254;-64
2023/03/23 06:51:23;;;;;;;4.18;3.75;;;11.00;99.90;;;11.98;88.37;97223.66;5204153;28;20212;-64
2023/03/23 06:53:55;;;;;;;4.45;3.65;;;11.00;99.90;;;12.01;88.13;97235.72;5219207;28;20440;-64
2023/03/23 06:56:29;;;;;;;3.67;3.38;;;11.10;99.90;;;12.02;87.95;97227.22;5216348;28;20227;-63
2023/03/23 06:59:01;;;;;;;4.05;3.65;;;11.10;99.90;;;12.03;87.83;97228.97;5218729;28;20656;-63
2023/03/23 07:01:33;;;;;;;4.80;3.70;;;11.10;99.90;;;12.02;88.31;97225.56;5237219;28;20204;-63
2023/03/23 07:04:06;;;;;;;4.30;3.90;;;11.20;99.90;;;12.03;88.41;97222.16;5216339;28;20270;-62
2023/03/23 07:06:38;;;;;;;4.05;3.75;;;11.20;99.90;;;12.06;88.90;97221.44;5217884;28;20290;-63
2023/03/23 07:09:10;;;;;;;3.83;3.50;;;11.20;99.90;;;12.10;89.02;97229.31;5219411;28;20636;-64
2023/03/23 07:11:43;;;;;;;4.30;4.00;;;11.30;99.90;;;12.17;88.52;97228.72;5220171;28;20200;-64
2023/03/23 07:14:15;;;;;;;4.25;3.92;;;11.30;99.90;;;12.08;89.31;97230.94;5216481;28;20723;-64
2023/03/23 07:16:48;;;;;;;4.10;3.75;;;11.30;99.90;;;12.20;89.62;97240.78;5217470;28;20225;-63
2023/03/23 07:19:20;;;;;;;4.95;4.45;;;11.40;99.90;;;12.26;89.96;97233.34;5217320;28;20204;-63
2023/03/23 07:21:52;;;;;;;5.22;4.57;;;11.50;99.90;;;12.35;90.11;97245.66;5221487;28;20215;-63
2023/03/23 07:24:24;;;;;;;4.28;3.88;;;11.50;99.90;;;12.40;90.38;97249.28;5220937;28;20583;-64
2023/03/23 07:26:57;;;;;;;4.10;3.70;;;11.60;99.90;;;12.49;90.74;97243.66;5224004;28;20205;-64
2023/03/23 07:29:29;;;;;;;4.63;4.00;;;11.70;99.90;;;12.57;90.15;97247.38;5218457;28;20193;-64
2023/03/23 07:32:01;;;;;;;3.95;3.55;;;11.80;99.90;;;12.68;88.53;97253.81;5218861;28;20201;-64
2023/03/23 07:34:34;;;;;;;3.63;3.33;;;11.80;99.90;;;12.73;88.42;97259.09;5218654;28;20258;-64
2023/03/23 07:37:07;;;;;;;4.70;3.72;;;11.90;99.90;;;12.83;89.33;97253.53;5221660;28;20704;-63
2023/03/23 07:39:40;;;;;;;3.97;3.60;;;12.00;99.90;;;12.88;89.68;97257.16;5219814;28;20197;-63
2023/03/23 07:42:13;;;;;;;4.13;3.83;;;12.10;99.90;;;12.95;89.92;97266.81;5218235;28;20206;-63
2023/03/23 07:44:45;;;;;;;3.92;3.60;;;12.20;99.90;;;13.01;89.71;97267.03;5223226;28;20222;-63
2023/03/23 07:47:18;;;;;;;4.00;3.70;;;12.20;99.90;;;13.01;89.62;97276.44;5223001;28;20201;-64
2023/03/23 07:49:50;;;;;;;4.85;4.20;;;12.20;99.90;;;13.04;90.41;97279.97;5216614;28;20564;-63
2023/03/23 07:52:23;;;;;;;5.03;4.03;;;12.20;99.90;;;13.07;90.02;97287.78;5218236;28;20683;-63
2023/03/23 07:54:55;;;;;;;5.15;4.28;;;12.20;99.90;;;13.07;89.92;97287.78;5220954;28;20727;-63
2023/03/23 07:57:29;;;;;;;5.38;3.97;;;12.30;99.90;;;13.06;90.17;97293.75;5222586;28;20811;-64
2023/03/23 08:00:14;;;;;;;3.88;3.58;;;12.20;99.90;;;13.02;90.46;97293.56;5223322;28;20193;-63
2023/03/23 08:02:48;;;;;;;4.15;3.75;;;12.20;99.90;;;12.98;91.87;97302.84;5215481;28;20208;-63
2023/03/23 08:05:21;;;;;;;4.18;3.72;;;12.20;99.90;;;12.95;92.46;97297.59;5218617;28;20704;-63
2023/03/23 08:07:54;;;;;;;4.10;3.70;;;12.20;99.90;;;12.96;93.22;97298.47;5216880;28;20201;-63
2023/03/23 08:10:27;;;;;;;4.38;4.00;;;12.20;99.90;;;12.97;94.12;97301.09;5212363;28;20235;-62
2023/03/23 08:13:00;;;;;;;6.47;4.03;;;12.20;99.90;;;13.03;94.81;97296.19;5214373;28;20228;-63
2023/03/23 08:15:33;;;;;;;4.28;3.97;;;12.30;99.90;;;13.11;95.03;97298.19;5218208;28;20232;-63
2023/03/23 08:18:06;;;;;;;4.80;4.40;;;12.30;99.90;;;13.15;94.66;97300.03;5213672;28;20735;-63
2023/03/23 08:20:38;;;;;;;5.00;4.35;;;12.30;99.90;;;13.18;92.83;97300.16;5218546;28;20210;-62
2023/03/23 08:23:10;;;;;;;3.42;3.20;;;12.30;99.90;;;13.20;91.85;97295.97;5213450;28;20568;-61
2023/03/23 08:25:43;;;;;;;5.25;3.72;;;12.40;99.90;;;13.28;92.06;97298.03;5212029;28;20284;-64
2023/03/23 08:28:17;;;;;;;3.88;3.58;;;12.50;99.90;;;13.43;89.76;97302.84;5219299;28;20287;-64
2023/03/23 08:30:49;;;;;;;4.18;3.70;;;12.60;99.90;;;13.60;88.43;97306.03;5220790;28;20207;-63
2023/03/23 08:33:22;;;;;;;3.97;3.50;;;12.70;99.90;;;13.74;87.15;97309.13;5220461;28;20212;-64
2023/03/23 08:35:58;;;;;;;4.13;3.80;;;12.90;99.90;;;13.81;86.22;97303.34;5218183;28;20684;-64
2023/03/23 08:38:31;;;;;;;4.38;3.95;;;13.00;99.90;;;13.94;85.57;97310.69;5217949;28;20228;-63
2023/03/23 08:41:07;;;;;;;4.35;4.05;;;13.10;99.90;;;14.09;85.93;97317.19;5212056;28;20562;-64
2023/03/23 08:43:40;;;;;;;5.28;4.35;;;13.30;99.90;;;14.22;85.84;97319.31;5220221;28;20227;-63
2023/03/23 08:46:12;;;;;;;5.47;3.70;;;13.50;99.90;;;14.41;85.53;97325.97;5218664;28;20207;-63
2023/03/23 08:48:45;;;;;;;3.67;3.45;;;13.70;99.90;;;14.68;83.35;97320.91;5222292;28;20207;-62
2023/03/23 08:51:18;;;;;;;3.55;3.10;;;13.90;99.90;;;14.98;80.36;97322.69;5221107;28;20610;-63
2023/03/23 08:53:50;;;;;;;3.40;3.10;;;14.20;99.90;;;15.43;74.78;97317.19;5215798;28;20590;-64
2023/03/23 08:56:23;;;;;;;3.85;3.17;;;14.60;99.90;;;15.63;72.68;97316.06;5218681;28;20223;-64
2023/03/23 08:58:56;;;;;;;3.47;3.10;;;14.70;99.90;;;15.86;71.20;97318.44;5227363;28;20744;-64
2023/03/23 09:01:28;;;;;;;4.18;3.15;;;15.00;99.90;;;15.90;71.33;97315.09;5214213;28;20212;-64
2023/03/23 09:04:00;;;;;;;4.22;3.38;;;15.00;99.90;;;15.97;70.20;97317.03;5214270;28;20224;-64
2023/03/23 09:06:33;;;;;;;3.53;3.10;;;15.10;99.90;;;16.08;67.69;97325.91;5217969;28;20215;-64
2023/03/23 09:09:06;;;;;;;3.67;2.90;;;15.30;99.90;;;16.17;66.99;97328.75;5220279;28;20303;-64
2023/03/23 09:11:39;;;;;;;3.35;3.03;;;15.30;99.90;;;16.17;66.69;97333.91;5215352;28;20299;-64
2023/03/23 09:14:12;;;;;;;4.10;2.80;;;15.30;99.90;;;16.35;64.97;97335.22;5221175;28;20300;-64
2023/03/23 09:16:45;;;;;;;3.25;2.95;;;15.40;99.90;;;16.30;64.33;97329.06;5221996;28;20192;-64
2023/03/23 09:19:17;;;;;;;2.60;2.40;;;15.40;99.90;;;16.30;64.17;97341.94;5224415;28;20215;-63
2023/03/23 09:21:49;;;;;;;3.17;2.88;;;15.40;99.90;;;16.48;60.64;97355.31;5223748;28;20728;-64
2023/03/23 09:24:22;;;;;;;2.47;2.38;;;15.50;99.90;;;16.50;58.77;97348.50;5221102;28;20339;-64
2023/03/23 09:26:54;;;;;;;4.07;2.63;;;15.60;99.90;;;16.48;59.05;97344.97;5217901;28;20208;-64
2023/03/23 09:29:28;;;;;;;2.35;2.15;;;15.60;99.90;;;16.50;59.45;97343.31;5221164;28;20270;-64
2023/03/23 09:32:00;;;;;;;2.80;2.60;;;15.60;99.90;;;16.69;58.12;97351.53;5206862;28;20201;-63
2023/03/23 09:34:35;;;;;;;2.83;2.60;;;15.70;99.90;;;16.53;58.28;97351.16;5236675;28;20746;-63
2023/03/23 09:37:08;;;;;;;2.70;2.50;;;15.60;99.90;;;16.60;58.04;97358.22;5213864;28;20215;-63
2023/03/23 09:39:40;;;;;;;3.15;2.85;;;15.60;99.90;;;16.57;58.36;97358.16;5222534;28;20659;-63
2023/03/23 09:42:30;;;;;;;2.55;2.35;;;15.70;99.90;;;16.63;58.11;97366.03;5226193;28;20197;-63
2023/03/23 09:45:15;;;;;;;2.80;2.60;;;15.60;99.90;;;16.67;57.67;97359.22;5223946;28;20236;-63
2023/03/23 09:48:15;;;;;;;2.63;2.35;;;15.60;99.90;;;16.84;56.85;97349.38;5219636;28;20546;-63
2023/03/23 09:50:54;;;;;;;2.70;2.50;;;15.80;99.90;;;16.90;56.01;97349.50;5213724;28;20316;-63
2023/03/23 09:53:34;;;;;;;2.40;2.20;;;16.00;99.90;;;16.92;57.19;97365.06;5220300;28;20228;-63
2023/03/23 09:56:13;;;;;;;2.80;2.60;;;16.00;99.90;;;16.99;56.92;97374.66;5222762;28;20192;-64
2023/03/23 09:58:51;;;;;;;2.40;2.20;;;16.00;99.90;;;16.92;57.05;97360.75;5221200;28;20221;-63
2023/03/23 10:01:28;;;;;;;2.50;2.30;;;16.10;99.90;;;17.13;56.06;97359.50;5217387;28;20200;-63
2023/03/23 10:04:06;;;;;;;2.45;2.30;;;16.00;99.90;;;17.11;56.38;97359.47;5215226;28;20216;-62
2023/03/23 10:06:38;;;;;;;2.63;2.42;;;16.20;99.90;;;17.09;55.80;97356.84;5216026;28;20212;-63
2023/03/23 10:09:16;;;;;;;2.72;2.50;;;16.10;99.90;;;16.96;57.52;97362.56;5233031;28;20207;-64
2023/03/23 10:11:59;;;;;;;2.45;2.28;;;16.00;99.90;;;16.93;56.53;97367.66;5216918;28;20215;-63
2023/03/23 10:15:14;;;;;;;2.33;2.13;;;16.00;99.90;;;17.02;56.24;97378.19;5218506;28;20587;-63
2023/03/23 10:17:55;;;;;;;2.22;2.08;;;16.10;99.90;;;17.08;56.58;97370.63;5203285;28;20248;-63
2023/03/23 10:20:41;;;;;;;2.60;2.40;;;16.20;99.90;;;16.96;56.63;97378.03;5216191;28;20650;-64
2023/03/23 10:23:42;;;;;;;2.55;2.35;;;16.00;99.90;;;16.97;56.92;97371.16;5219265;28;20211;-63
2023/03/23 10:26:28;;;;;;;2.80;2.60;;;16.00;99.90;;;17.00;56.31;97376.44;5219034;28;20208;-63
2023/03/23 10:29:12;;;;;;;2.78;2.58;;;16.10;99.90;;;17.00;55.99;97381.59;5216371;28;20193;-64
2023/03/23 10:31:49;;;;;;;3.10;2.50;;;16.20;99.90;;;17.00;56.70;97377.31;5225230;28;20199;-63
2023/03/23 10:34:32;;;;;;;2.90;2.17;;;16.30;99.90;;;17.04;56.78;97376.53;5219379;28;20243;-64
2023/03/23 10:37:12;;;;;;;2.63;2.42;;;16.20;99.90;;;17.10;57.25;97380.97;5216205;28;20208;-63
2023/03/23 10:39:51;;;;;;;2.35;2.15;;;16.30;99.90;;;17.06;57.12;97380.03;5219719;28;20200;-64
2023/03/23 10:42:29;;;;;;;2.42;2.05;;;16.40;99.90;;;17.07;56.62;97384.34;5219651;28;20204;-64
2023/03/23 10:45:13;;;;;;;2.80;2.30;;;16.30;99.90;;;17.22;57.20;97377.78;5222309;28;20221;-63
2023/03/23 10:47:51;;;;;;;2.40;2.20;;;16.40;99.90;;;17.32;55.98;97385.78;5217144;28;20228;-63
2023/03/23 10:50:30;;;;;;;2.70;2.50;;;16.40;99.90;;;17.36;55.52;97381.56;5220115;28;20201;-64
2023/03/23 10:53:14;;;;;;;2.28;2.03;;;16.50;99.90;;;17.43;54.68;97383.47;5217301;28;22087;-62